createdAt,value
2018-04-17T00:00:25.655Z,0.00
2018-04-17T00:02:19.119Z,0.00
2018-04-17T00:03:19.121Z,0.00
2018-04-17T00:05:12.071Z,0.00
2018-04-17T00:06:12.088Z,0.00
2018-04-17T00:08:05.008Z,0.00
2018-04-17T00:09:05.028Z,0.00
2018-04-17T00:10:59.511Z,0.00
2018-04-17T00:11:59.516Z,0.00
2018-04-17T00:13:52.972Z,0.00
2018-04-17T00:14:52.995Z,0.00
2018-04-17T00:16:45.933Z,0.00
2018-04-17T00:17:45.936Z,0.00
2018-04-17T00:19:38.867Z,0.00
2018-04-17T00:20:38.888Z,0.00
2018-04-17T00:22:31.883Z,0.00
2018-04-17T00:23:31.843Z,0.00
2018-04-17T00:25:25.817Z,0.00
2018-04-17T00:26:25.821Z,0.00
2018-04-17T00:28:18.756Z,0.00
2018-04-17T00:29:18.773Z,0.00
2018-04-17T00:31:11.769Z,0.00
2018-04-17T00:32:11.728Z,0.00
2018-04-17T00:34:06.195Z,0.00
2018-04-17T00:35:06.217Z,0.00
2018-04-17T00:37:00.702Z,0.00
2018-04-17T00:38:00.705Z,0.00
2018-04-17T00:39:53.640Z,0.00
2018-04-17T00:40:53.660Z,0.00
2018-04-17T00:42:46.612Z,0.00
2018-04-17T00:43:46.615Z,0.00
2018-04-17T00:45:39.589Z,0.00
2018-04-17T00:46:39.570Z,0.00
2018-04-17T00:48:32.519Z,0.00
2018-04-17T00:49:32.522Z,0.00
2018-04-17T00:51:25.990Z,0.00
2018-04-17T00:52:25.995Z,0.00
2018-04-17T00:54:18.965Z,0.00
2018-04-17T00:55:18.944Z,0.00
2018-04-17T00:57:11.893Z,0.00
2018-04-17T00:58:11.900Z,0.00
2018-04-17T01:00:04.849Z,0.00
2018-04-17T01:01:04.852Z,0.00
2018-04-17T01:02:57.802Z,0.00
2018-04-17T01:03:57.805Z,0.00
2018-04-17T01:05:50.751Z,0.00
2018-04-17T01:06:50.754Z,0.00
2018-04-17T01:08:43.692Z,0.00
2018-04-17T01:09:43.712Z,0.00
2018-04-17T01:11:36.665Z,0.00
2018-04-17T01:12:36.684Z,0.00
2018-04-17T01:14:29.605Z,0.00
2018-04-17T01:15:29.625Z,0.00
2018-04-17T01:17:22.569Z,0.00
2018-04-17T01:18:22.569Z,0.00
2018-04-17T01:20:15.542Z,0.00
2018-04-17T01:21:15.523Z,0.00
2018-04-17T01:23:10.018Z,0.00
2018-04-17T01:24:10.017Z,0.00
2018-04-17T01:26:02.969Z,0.00
2018-04-17T01:27:02.973Z,0.00
2018-04-17T01:28:56.442Z,0.00
2018-04-17T01:29:55.921Z,0.00
2018-04-17T01:31:48.873Z,0.00
2018-04-17T01:32:48.874Z,0.00
2018-04-17T01:34:42.320Z,0.00
2018-04-17T01:35:42.340Z,0.00
2018-04-17T01:37:35.292Z,0.00
2018-04-17T01:38:35.294Z,0.00
2018-04-17T01:40:28.228Z,0.00
2018-04-17T01:41:28.253Z,0.00
2018-04-17T01:43:21.203Z,0.00
2018-04-17T01:44:21.205Z,0.00
2018-04-17T01:46:14.195Z,0.00
2018-04-17T01:47:14.161Z,0.00
2018-04-17T01:49:07.130Z,0.00
2018-04-17T01:50:07.112Z,0.00
2018-04-17T01:52:00.060Z,0.00
2018-04-17T01:53:00.065Z,0.00
2018-04-17T01:54:54.538Z,0.00
2018-04-17T01:55:54.555Z,0.00
2018-04-17T01:57:47.505Z,0.00
2018-04-17T01:58:47.510Z,0.00
2018-04-17T02:00:40.447Z,0.00
2018-04-17T02:01:40.468Z,0.00
2018-04-17T02:03:33.421Z,0.00
2018-04-17T02:04:33.425Z,0.00
2018-04-17T02:06:26.414Z,0.00
2018-04-17T02:07:26.369Z,0.00
2018-04-17T02:09:19.309Z,0.00
2018-04-17T02:10:19.323Z,0.00
2018-04-17T02:12:12.274Z,0.00
2018-04-17T02:13:12.277Z,0.00
2018-04-17T02:15:05.246Z,0.00
2018-04-17T02:16:05.232Z,0.00
2018-04-17T02:17:58.185Z,0.00
2018-04-17T02:18:58.189Z,0.00
2018-04-17T02:20:54.193Z,0.00
2018-04-17T02:21:54.213Z,0.00
2018-04-17T02:23:47.163Z,0.00
2018-04-17T02:24:47.165Z,0.00
2018-04-17T02:26:40.156Z,0.00
2018-04-17T02:27:40.118Z,0.00
2018-04-17T02:29:34.590Z,0.00
2018-04-17T02:30:34.613Z,0.00
2018-04-17T02:32:27.621Z,0.00
2018-04-17T02:33:27.567Z,0.00
2018-04-17T02:35:20.499Z,0.00
2018-04-17T02:36:20.518Z,0.00
2018-04-17T02:38:13.492Z,0.00
2018-04-17T02:39:13.471Z,0.00
2018-04-17T02:41:06.939Z,0.00
2018-04-17T02:42:06.941Z,0.00
2018-04-17T02:44:00.400Z,0.00
2018-04-17T02:45:00.403Z,0.00
2018-04-17T02:46:53.388Z,0.00
2018-04-17T02:47:53.356Z,0.00
2018-04-17T02:49:46.289Z,0.00
2018-04-17T02:50:46.310Z,0.00
2018-04-17T02:52:39.794Z,0.00
2018-04-17T02:53:39.774Z,0.00
2018-04-17T02:55:32.708Z,0.00
2018-04-17T02:56:32.728Z,0.00
2018-04-17T02:58:25.677Z,0.00
2018-04-17T02:59:25.681Z,0.00
2018-04-17T03:01:18.617Z,0.00
2018-04-17T03:02:18.653Z,0.00
2018-04-17T03:04:11.625Z,0.00
2018-04-17T03:05:11.589Z,0.00
2018-04-17T03:07:04.546Z,0.00
2018-04-17T03:08:04.542Z,0.00
2018-04-17T03:09:57.500Z,0.00
2018-04-17T03:10:57.497Z,0.00
2018-04-17T03:12:50.462Z,0.00
2018-04-17T03:13:50.450Z,0.00
2018-04-17T03:15:43.383Z,0.00
2018-04-17T03:16:43.405Z,0.00
2018-04-17T03:18:36.354Z,0.00
2018-04-17T03:19:36.359Z,0.00
2018-04-17T03:21:29.298Z,0.00
2018-04-17T03:22:29.334Z,0.00
2018-04-17T03:24:22.259Z,0.00
2018-04-17T03:25:22.276Z,0.00
2018-04-17T03:27:15.250Z,0.00
2018-04-17T03:28:15.220Z,0.00
2018-04-17T03:30:08.187Z,0.00
2018-04-17T03:31:08.180Z,0.00
2018-04-17T03:33:01.096Z,0.00
2018-04-17T03:34:01.098Z,0.00
2018-04-17T03:35:54.057Z,0.00
2018-04-17T03:36:54.076Z,0.00
2018-04-17T03:38:48.566Z,0.00
2018-04-17T03:39:48.569Z,0.00
2018-04-17T03:41:44.470Z,0.00
2018-04-17T03:42:44.493Z,0.00
2018-04-17T03:44:38.113Z,0.00
2018-04-17T03:45:38.049Z,0.00
2018-04-17T03:47:33.996Z,0.00
2018-04-17T03:48:34.000Z,0.00
2018-04-17T03:50:27.021Z,0.00
2018-04-17T03:51:27.040Z,0.00
2018-04-17T03:53:19.993Z,4.00
2018-04-17T03:54:19.995Z,0.00
2018-04-17T03:56:12.930Z,4.00
2018-04-17T03:57:12.948Z,4.00
2018-04-17T03:59:05.900Z,8.00
2018-04-17T04:00:05.901Z,8.00
2018-04-17T04:01:58.836Z,8.00
2018-04-17T04:02:58.855Z,12.00
2018-04-17T04:04:51.827Z,16.00
2018-04-17T04:05:51.806Z,16.00
2018-04-17T04:07:44.771Z,24.00
2018-04-17T04:08:44.759Z,28.00
2018-04-17T04:10:37.714Z,40.00
2018-04-17T04:11:37.718Z,44.00
2018-04-17T04:13:30.668Z,56.00
2018-04-17T04:14:30.672Z,60.00
2018-04-17T04:16:23.602Z,80.00
2018-04-17T04:17:23.622Z,96.00
2018-04-17T04:19:16.573Z,116.00
2018-04-17T04:20:16.573Z,132.00
2018-04-17T04:22:09.507Z,156.00
2018-04-17T04:23:09.533Z,176.00
2018-04-17T04:25:02.997Z,212.00
2018-04-17T04:26:02.996Z,232.00
2018-04-17T04:27:55.947Z,276.00
2018-04-17T04:28:55.947Z,300.00
2018-04-17T04:30:48.883Z,348.00
2018-04-17T04:31:48.902Z,380.00
2018-04-17T04:33:41.858Z,436.00
2018-04-17T04:34:41.857Z,468.00
2018-04-17T04:36:34.796Z,532.00
2018-04-17T04:37:34.818Z,572.00
2018-04-17T04:39:27.768Z,644.00
2018-04-17T04:40:27.762Z,680.00
2018-04-17T04:42:20.700Z,764.00
2018-04-17T04:43:20.720Z,812.00
2018-04-17T04:45:13.633Z,904.00
2018-04-17T04:46:13.634Z,952.00
2018-04-17T04:48:06.625Z,1056.00
2018-04-17T04:49:06.626Z,1112.00
2018-04-17T04:50:59.560Z,1220.00
2018-04-17T04:51:59.579Z,1276.00
2018-04-17T04:53:52.534Z,1388.00
2018-04-17T04:54:52.535Z,1456.00
2018-04-17T04:56:45.978Z,1588.00
2018-04-17T04:57:45.999Z,1664.00
2018-04-17T04:59:38.952Z,1800.00
2018-04-17T05:00:38.955Z,1872.00
2018-04-17T05:02:32.421Z,2008.00
2018-04-17T05:03:32.421Z,2088.00
2018-04-17T05:05:25.887Z,2236.00
2018-04-17T05:06:25.884Z,2308.00
2018-04-17T05:08:19.366Z,2436.00
2018-04-17T05:09:19.352Z,2512.00
2018-04-17T05:11:12.287Z,2664.00
2018-04-17T05:12:12.305Z,2740.00
2018-04-17T05:14:05.263Z,2896.00
2018-04-17T05:15:05.259Z,2984.00
2018-04-17T05:16:58.193Z,3168.00
2018-04-17T05:17:58.217Z,3320.00
2018-04-17T05:19:51.165Z,3432.00
2018-04-17T05:20:51.170Z,3540.00
2018-04-17T05:22:44.066Z,3808.00
2018-04-17T05:23:44.086Z,3864.00
2018-04-17T05:25:37.012Z,3920.00
2018-04-17T05:26:37.019Z,4032.00
2018-04-17T05:28:29.964Z,4352.00
2018-04-17T05:29:29.964Z,4420.00
2018-04-17T05:31:22.867Z,4468.00
2018-04-17T05:32:22.889Z,4516.00
2018-04-17T05:34:15.822Z,4748.00
2018-04-17T05:35:15.810Z,4848.00
2018-04-17T05:37:08.720Z,5096.00
2018-04-17T05:38:08.740Z,5192.00
2018-04-17T05:40:01.666Z,5188.00
2018-04-17T05:41:01.669Z,5308.00
2018-04-17T05:42:54.571Z,5368.00
2018-04-17T05:43:54.592Z,5524.00
2018-04-17T05:45:47.517Z,5704.00
2018-04-17T05:46:47.516Z,5904.00
2018-04-17T05:48:40.440Z,6024.00
2018-04-17T05:49:40.443Z,5928.00
2018-04-17T05:51:33.543Z,6032.00
2018-04-17T05:52:33.368Z,6284.00
2018-04-17T05:54:26.293Z,6148.00
2018-04-17T05:55:26.296Z,6380.00
2018-04-17T05:57:19.698Z,6868.00
2018-04-17T05:58:19.720Z,6808.00
2018-04-17T06:00:12.651Z,7240.00
2018-04-17T06:01:12.660Z,7368.00
2018-04-17T06:03:05.561Z,8236.00
2018-04-17T06:04:05.579Z,8524.00
2018-04-17T06:05:58.518Z,8868.00
2018-04-17T06:06:58.518Z,10312.00
2018-04-17T06:08:51.441Z,11972.00
2018-04-17T06:09:51.443Z,12432.00
2018-04-17T06:11:44.361Z,12824.00
2018-04-17T06:12:44.379Z,13016.00
2018-04-17T06:14:37.414Z,13776.00
2018-04-17T06:15:37.309Z,14044.00
2018-04-17T06:17:30.219Z,13648.00
2018-04-17T06:18:30.248Z,13864.00
2018-04-17T06:20:23.174Z,14236.00
2018-04-17T06:21:23.183Z,14328.00
2018-04-17T06:23:19.149Z,15456.00
2018-04-17T06:24:19.107Z,15840.00
2018-04-17T06:26:12.062Z,15776.00
2018-04-17T06:27:12.052Z,15776.00
2018-04-17T06:29:04.981Z,16544.00
2018-04-17T06:30:04.988Z,17024.00
2018-04-17T06:31:58.464Z,17248.00
2018-04-17T06:32:57.996Z,17504.00
2018-04-17T06:34:50.941Z,18688.00
2018-04-17T06:35:50.958Z,19296.00
2018-04-17T06:37:45.411Z,19040.00
2018-04-17T06:38:45.439Z,18624.00
2018-04-17T06:40:38.368Z,18688.00
2018-04-17T06:41:38.397Z,19040.00
2018-04-17T06:43:31.320Z,19872.00
2018-04-17T06:44:31.345Z,19680.00
2018-04-17T06:46:24.290Z,20128.00
2018-04-17T06:47:24.304Z,19872.00
2018-04-17T06:49:17.242Z,19840.00
2018-04-17T06:50:17.257Z,21184.00
2018-04-17T06:52:10.189Z,21152.00
2018-04-17T06:53:10.206Z,19328.00
2018-04-17T06:55:03.633Z,8452.00
2018-04-17T06:56:03.644Z,7764.00
2018-04-17T06:57:56.564Z,7544.00
2018-04-17T06:58:56.589Z,7556.00
2018-04-17T07:00:49.526Z,7556.00
2018-04-17T07:01:49.534Z,7520.00
2018-04-17T07:03:42.452Z,7472.00
2018-04-17T07:04:42.478Z,7440.00
2018-04-17T07:06:35.421Z,7340.00
2018-04-17T07:07:35.420Z,7292.00
2018-04-17T07:09:28.356Z,7188.00
2018-04-17T07:10:28.363Z,7132.00
2018-04-17T07:12:21.284Z,7048.00
2018-04-17T07:13:21.306Z,6992.00
2018-04-17T07:15:14.263Z,6932.00
2018-04-17T07:16:14.252Z,6948.00
2018-04-17T07:18:07.169Z,6972.00
2018-04-17T07:19:07.181Z,6928.00
2018-04-17T07:21:00.114Z,6888.00
2018-04-17T07:22:00.119Z,6864.00
2018-04-17T07:23:53.030Z,6824.00
2018-04-17T07:24:53.053Z,6832.00
2018-04-17T07:26:45.991Z,6832.00
2018-04-17T07:27:45.996Z,6832.00
2018-04-17T07:29:39.004Z,6832.00
2018-04-17T07:30:39.012Z,6844.00
2018-04-17T07:32:32.488Z,6836.00
2018-04-17T07:33:32.069Z,6836.00
2018-04-17T07:35:25.015Z,6840.00
2018-04-17T07:36:25.033Z,6844.00
2018-04-17T07:38:17.950Z,6820.00
2018-04-17T07:39:17.977Z,6812.00
2018-04-17T07:41:10.932Z,6832.00
2018-04-17T07:42:10.938Z,6856.00
2018-04-17T07:44:03.858Z,6932.00
2018-04-17T07:45:03.884Z,6988.00
2018-04-17T07:46:56.830Z,7088.00
2018-04-17T07:47:56.838Z,7148.00
2018-04-17T07:49:49.784Z,7360.00
2018-04-17T07:50:49.794Z,7476.00
2018-04-17T07:52:42.728Z,7740.00
2018-04-17T07:53:42.746Z,7816.00
2018-04-17T07:55:35.693Z,7844.00
2018-04-17T07:56:35.701Z,7716.00
2018-04-17T07:58:28.633Z,7640.00
2018-04-17T07:59:28.654Z,7664.00
2018-04-17T08:01:21.609Z,7716.00
2018-04-17T08:02:21.611Z,7680.00
2018-04-17T08:04:14.541Z,7408.00
2018-04-17T08:05:14.571Z,7308.00
2018-04-17T08:07:08.020Z,7040.00
2018-04-17T08:08:08.027Z,6828.00
2018-04-17T08:10:01.487Z,6384.00
2018-04-17T08:11:01.497Z,6284.00
2018-04-17T08:12:54.437Z,6428.00
2018-04-17T08:13:54.448Z,6384.00
2018-04-17T08:15:47.412Z,6184.00
2018-04-17T08:16:47.422Z,6104.00
2018-04-17T08:18:41.352Z,6028.00
2018-04-17T08:19:41.382Z,5976.00
2018-04-17T08:21:34.328Z,5956.00
2018-04-17T08:22:34.335Z,5908.00
2018-04-17T08:24:27.259Z,5732.00
2018-04-17T08:25:27.286Z,5660.00
2018-04-17T08:27:20.234Z,5564.00
2018-04-17T08:28:20.239Z,5540.00
2018-04-17T08:30:13.186Z,5516.00
2018-04-17T08:31:13.193Z,5524.00
2018-04-17T08:33:06.674Z,5472.00
2018-04-17T08:34:06.154Z,5452.00
2018-04-17T08:35:59.094Z,5364.00
2018-04-17T08:36:59.113Z,5344.00
2018-04-17T08:38:52.051Z,5316.00
2018-04-17T08:39:52.060Z,5304.00
2018-04-17T08:41:45.002Z,5180.00
2018-04-17T08:42:45.021Z,5120.00
2018-04-17T08:44:37.940Z,5088.00
2018-04-17T08:45:37.966Z,5072.00
2018-04-17T08:47:30.910Z,5012.00
2018-04-17T08:48:30.917Z,4968.00
2018-04-17T08:50:23.864Z,4920.00
2018-04-17T08:51:23.881Z,4916.00
2018-04-17T08:53:16.857Z,4936.00
2018-04-17T08:54:16.826Z,4920.00
2018-04-17T08:56:09.876Z,4872.00
2018-04-17T08:57:09.880Z,4840.00
2018-04-17T08:59:02.809Z,4776.00
2018-04-17T09:00:02.835Z,4740.00
2018-04-17T09:01:55.784Z,4680.00
2018-04-17T09:02:55.790Z,4668.00
2018-04-17T09:04:48.718Z,4656.00
2018-04-17T09:05:48.746Z,4636.00
2018-04-17T09:07:41.739Z,4756.00
2018-04-17T09:08:41.700Z,4784.00
2018-04-17T09:10:34.643Z,4868.00
2018-04-17T09:11:34.650Z,4884.00
2018-04-17T09:13:27.577Z,4888.00
2018-04-17T09:14:27.604Z,4916.00
2018-04-17T09:16:20.570Z,4964.00
2018-04-17T09:17:20.559Z,4984.00
2018-04-17T09:19:13.488Z,5004.00
2018-04-17T09:20:13.513Z,5004.00
2018-04-17T09:22:06.458Z,5020.00
2018-04-17T09:23:06.466Z,5052.00
2018-04-17T09:24:59.393Z,5204.00
2018-04-17T09:25:59.438Z,5316.00
2018-04-17T09:27:52.369Z,5492.00
2018-04-17T09:28:52.377Z,5604.00
2018-04-17T09:30:45.312Z,5884.00
2018-04-17T09:31:45.323Z,6020.00
2018-04-17T09:33:38.357Z,6236.00
2018-04-17T09:34:38.386Z,6380.00
2018-04-17T09:36:31.331Z,6656.00
2018-04-17T09:37:31.342Z,6880.00
2018-04-17T09:39:24.267Z,7052.00
2018-04-17T09:40:24.293Z,7056.00
2018-04-17T09:42:17.242Z,7172.00
2018-04-17T09:43:17.250Z,7316.00
2018-04-17T09:45:10.181Z,7556.00
2018-04-17T09:46:10.206Z,7660.00
2018-04-17T09:48:03.151Z,7776.00
2018-04-17T09:49:03.157Z,7832.00
2018-04-17T09:50:56.111Z,7948.00
2018-04-17T09:51:56.111Z,8012.00
2018-04-17T09:53:49.138Z,8068.00
2018-04-17T09:54:49.166Z,8060.00
2018-04-17T09:56:42.111Z,8116.00
2018-04-17T09:57:42.130Z,8136.00
2018-04-17T09:59:35.042Z,8144.00
2018-04-17T10:00:35.067Z,8020.00
2018-04-17T10:02:28.019Z,7800.00
2018-04-17T10:03:28.025Z,7752.00
2018-04-17T10:05:22.445Z,7700.00
2018-04-17T10:06:22.466Z,7608.00
2018-04-17T10:08:15.418Z,7728.00
2018-04-17T10:09:15.418Z,8044.00
2018-04-17T10:11:08.363Z,7444.00
2018-04-17T10:12:08.370Z,7272.00
2018-04-17T10:14:01.288Z,7400.00
2018-04-17T10:15:01.317Z,7332.00
2018-04-17T10:16:54.755Z,7288.00
2018-04-17T10:17:54.767Z,7572.00
2018-04-17T10:19:47.688Z,7724.00
2018-04-17T10:20:47.713Z,7416.00
2018-04-17T10:22:40.646Z,7196.00
2018-04-17T10:23:40.658Z,7748.00
2018-04-17T10:25:33.572Z,6964.00
2018-04-17T10:26:33.603Z,6848.00
2018-04-17T10:28:26.597Z,6916.00
2018-04-17T10:29:26.548Z,7040.00
2018-04-17T10:31:19.487Z,7008.00
2018-04-17T10:32:19.495Z,7124.00
2018-04-17T10:34:12.976Z,7476.00
2018-04-17T10:35:12.443Z,7584.00
2018-04-17T10:37:05.876Z,7572.00
2018-04-17T10:38:05.887Z,7412.00
2018-04-17T10:39:58.813Z,7296.00
2018-04-17T10:40:58.845Z,7308.00
2018-04-17T10:42:51.782Z,8068.00
2018-04-17T10:43:51.791Z,7864.00
2018-04-17T10:45:44.721Z,7440.00
2018-04-17T10:46:44.749Z,7236.00
2018-04-17T10:48:37.691Z,7156.00
2018-04-17T10:49:37.700Z,7292.00
2018-04-17T10:51:30.649Z,6712.00
2018-04-17T10:52:30.658Z,6476.00
2018-04-17T10:54:23.593Z,6272.00
2018-04-17T10:55:23.608Z,6276.00
2018-04-17T10:57:16.555Z,6088.00
2018-04-17T10:58:16.567Z,6024.00
2018-04-17T11:00:09.489Z,5940.00
2018-04-17T11:01:09.516Z,5848.00
2018-04-17T11:03:02.463Z,5684.00
2018-04-17T11:04:02.533Z,5608.00
2018-04-17T11:05:55.399Z,5420.00
2018-04-17T11:06:55.425Z,5320.00
2018-04-17T11:08:48.383Z,5260.00
2018-04-17T11:09:48.393Z,5260.00
2018-04-17T11:11:41.332Z,5256.00
2018-04-17T11:12:41.343Z,5244.00
2018-04-17T11:14:34.264Z,5344.00
2018-04-17T11:15:34.290Z,5380.00
2018-04-17T11:17:27.291Z,5500.00
2018-04-17T11:18:27.244Z,5528.00
2018-04-17T11:20:20.167Z,5528.00
2018-04-17T11:21:20.198Z,5556.00
2018-04-17T11:23:13.160Z,5576.00
2018-04-17T11:24:13.146Z,5576.00
2018-04-17T11:26:06.065Z,5520.00
2018-04-17T11:27:06.093Z,5492.00
2018-04-17T11:28:59.081Z,5504.00
2018-04-17T11:29:59.042Z,5440.00
2018-04-17T11:31:51.976Z,5432.00
2018-04-17T11:32:51.990Z,5444.00
2018-04-17T11:34:44.933Z,5380.00
2018-04-17T11:35:44.935Z,5352.00
2018-04-17T11:37:37.892Z,5272.00
2018-04-17T11:38:37.889Z,5292.00
2018-04-17T11:40:30.806Z,5208.00
2018-04-17T11:41:30.835Z,5140.00
2018-04-17T11:43:23.774Z,4972.00
2018-04-17T11:44:23.786Z,4960.00
2018-04-17T11:46:16.764Z,4928.00
2018-04-17T11:47:16.748Z,4880.00
2018-04-17T11:49:09.672Z,4752.00
2018-04-17T11:50:09.688Z,4728.00
2018-04-17T11:52:02.622Z,4620.00
2018-04-17T11:53:02.865Z,4540.00
2018-04-17T11:54:55.559Z,4392.00
2018-04-17T11:55:55.589Z,4312.00
2018-04-17T11:57:48.535Z,4188.00
2018-04-17T11:58:48.544Z,4140.00
2018-04-17T12:00:41.465Z,4048.00
2018-04-17T12:01:41.497Z,4000.00
2018-04-17T12:03:34.442Z,3932.00
2018-04-17T12:04:34.445Z,3896.00
2018-04-17T12:06:27.432Z,3840.00
2018-04-17T12:07:27.400Z,3796.00
2018-04-17T12:09:20.833Z,3756.00
2018-04-17T12:10:20.852Z,3752.00
2018-04-17T12:12:13.781Z,3720.00
2018-04-17T12:13:13.789Z,3708.00
2018-04-17T12:15:06.712Z,3680.00
2018-04-17T12:16:06.740Z,3672.00
2018-04-17T12:17:59.677Z,3668.00
2018-04-17T12:18:59.686Z,3660.00
2018-04-17T12:20:52.610Z,3664.00
2018-04-17T12:21:52.634Z,3668.00
2018-04-17T12:23:45.581Z,3676.00
2018-04-17T12:24:45.590Z,3680.00
2018-04-17T12:26:38.554Z,3680.00
2018-04-17T12:27:38.582Z,3680.00
2018-04-17T12:29:31.532Z,3676.00
2018-04-17T12:30:31.541Z,3676.00
2018-04-17T12:32:24.506Z,3668.00
2018-04-17T12:33:24.514Z,3660.00
2018-04-17T12:35:17.518Z,3644.00
2018-04-17T12:36:17.546Z,3636.00
2018-04-17T12:38:10.491Z,3696.00
2018-04-17T12:39:10.502Z,3692.00
2018-04-17T12:41:03.921Z,3700.00
2018-04-17T12:42:03.953Z,3680.00
2018-04-17T12:43:56.910Z,3716.00
2018-04-17T12:44:56.920Z,3720.00
2018-04-17T12:46:49.948Z,3728.00
2018-04-17T12:47:49.976Z,3732.00
2018-04-17T12:49:42.958Z,3724.00
2018-04-17T12:50:42.927Z,3748.00
2018-04-17T12:52:35.874Z,3772.00
2018-04-17T12:53:35.881Z,3772.00
2018-04-17T12:55:28.798Z,3764.00
2018-04-17T12:56:28.827Z,3760.00
2018-04-17T12:58:21.790Z,3780.00
2018-04-17T12:59:21.779Z,3796.00
2018-04-17T13:01:14.715Z,3848.00
2018-04-17T13:02:14.733Z,3880.00
2018-04-17T13:04:07.678Z,3928.00
2018-04-17T13:05:07.735Z,3980.00
2018-04-17T13:07:00.613Z,4068.00
2018-04-17T13:08:00.642Z,4088.00
2018-04-17T13:09:53.585Z,4116.00
2018-04-17T13:10:53.615Z,4120.00
2018-04-17T13:12:47.135Z,4192.00
2018-04-17T13:13:47.037Z,4276.00
2018-04-17T13:15:39.998Z,4352.00
2018-04-17T13:16:39.986Z,4348.00
2018-04-17T13:18:33.435Z,4396.00
2018-04-17T13:19:33.444Z,4476.00
2018-04-17T13:21:26.372Z,4576.00
2018-04-17T13:22:26.401Z,4600.00
2018-04-17T13:24:19.351Z,4672.00
2018-04-17T13:25:19.349Z,4604.00
2018-04-17T13:27:12.294Z,4424.00
2018-04-17T13:28:12.306Z,4388.00
2018-04-17T13:30:15.260Z,4404.00
2018-04-17T13:31:15.269Z,4412.00
2018-04-17T13:33:08.365Z,4448.00
2018-04-17T13:34:08.382Z,4336.00
2018-04-17T13:36:01.292Z,4356.00
2018-04-17T13:37:01.321Z,4372.00
2018-04-17T13:38:54.267Z,4448.00
2018-04-17T13:39:54.267Z,4552.00
2018-04-17T13:41:47.195Z,4588.00
2018-04-17T13:42:47.224Z,4464.00
2018-04-17T13:44:40.164Z,4272.00
2018-04-17T13:45:40.171Z,4104.00
2018-04-17T13:47:33.105Z,3956.00
2018-04-17T13:48:33.120Z,4000.00
2018-04-17T13:50:26.066Z,4104.00
2018-04-17T13:51:26.066Z,4168.00
2018-04-17T13:53:19.004Z,4268.00
2018-04-17T13:54:19.014Z,4236.00
2018-04-17T13:56:11.984Z,4164.00
2018-04-17T13:57:12.003Z,4204.00
2018-04-17T13:59:04.940Z,4204.00
2018-04-17T14:00:04.954Z,4212.00
2018-04-17T14:01:57.873Z,4104.00
2018-04-17T14:02:57.960Z,3988.00
2018-04-17T14:04:50.881Z,4040.00
2018-04-17T14:05:50.866Z,4100.00
2018-04-17T14:07:43.804Z,4120.00
2018-04-17T14:08:43.845Z,4120.00
2018-04-17T14:10:36.861Z,4124.00
2018-04-17T14:11:36.802Z,4116.00
2018-04-17T14:13:29.793Z,4108.00
2018-04-17T14:14:29.756Z,4096.00
2018-04-17T14:16:23.220Z,4080.00
2018-04-17T14:17:22.688Z,4068.00
2018-04-17T14:19:15.745Z,3896.00
2018-04-17T14:20:15.679Z,3636.00
2018-04-17T14:22:08.592Z,3468.00
2018-04-17T14:23:08.631Z,3316.00
2018-04-17T14:25:01.619Z,3220.00
2018-04-17T14:26:01.538Z,3312.00
2018-04-17T14:27:54.433Z,3404.00
2018-04-17T14:28:54.495Z,3584.00
2018-04-17T14:30:47.477Z,3920.00
2018-04-17T14:31:47.462Z,4124.00
2018-04-17T14:33:41.420Z,4248.00
2018-04-17T14:34:40.452Z,4228.00
2018-04-17T14:36:33.370Z,4164.00
2018-04-17T14:37:33.394Z,4184.00
2018-04-17T14:39:26.385Z,4260.00
2018-04-17T14:40:26.343Z,4360.00
2018-04-17T14:42:19.268Z,4376.00
2018-04-17T14:43:19.288Z,4576.00
2018-04-17T14:45:13.265Z,4780.00
2018-04-17T14:46:13.250Z,4896.00
2018-04-17T14:48:06.154Z,5008.00
2018-04-17T14:49:06.193Z,5088.00
2018-04-17T14:50:59.085Z,5280.00
2018-04-17T14:51:59.150Z,5304.00
2018-04-17T14:53:52.158Z,5428.00
2018-04-17T14:54:52.069Z,5588.00
2018-04-17T14:56:44.994Z,5800.00
2018-04-17T14:57:45.021Z,5848.00
2018-04-17T14:59:38.013Z,5656.00
2018-04-17T15:00:38.003Z,5692.00
2018-04-17T15:02:30.920Z,5592.00
2018-04-17T15:03:31.013Z,5480.00
2018-04-17T15:05:23.940Z,5332.00
2018-04-17T15:06:23.866Z,5272.00
2018-04-17T15:08:16.901Z,5196.00
2018-04-17T15:09:16.909Z,5108.00
2018-04-17T15:11:09.970Z,4972.00
2018-04-17T15:12:10.035Z,4972.00
2018-04-17T15:14:05.974Z,4964.00
2018-04-17T15:15:05.983Z,4968.00
2018-04-17T15:17:00.450Z,5024.00
2018-04-17T15:18:00.480Z,5016.00
2018-04-17T15:19:53.521Z,5144.00
2018-04-17T15:20:53.533Z,5240.00
2018-04-17T15:22:46.558Z,5436.00
2018-04-17T15:23:46.587Z,5492.00
2018-04-17T15:25:39.749Z,5624.00
2018-04-17T15:26:39.755Z,5728.00
2018-04-17T15:28:33.458Z,5856.00
2018-04-17T15:29:33.489Z,5904.00
2018-04-17T15:31:26.465Z,6032.00
2018-04-17T15:32:26.474Z,6116.00
2018-04-17T15:34:19.530Z,6024.00
2018-04-17T15:35:19.526Z,5956.00
2018-04-17T15:37:12.556Z,5968.00
2018-04-17T15:38:12.590Z,6048.00
2018-04-17T15:40:05.633Z,5824.00
2018-04-17T15:41:05.640Z,5908.00
2018-04-17T15:42:59.079Z,6088.00
2018-04-17T15:43:59.129Z,6060.00
2018-04-17T15:45:52.210Z,5704.00
2018-04-17T15:46:52.167Z,5656.00
2018-04-17T15:48:45.212Z,5640.00
2018-04-17T15:49:45.224Z,5688.00
2018-04-17T15:51:39.698Z,5848.00
2018-04-17T15:52:39.733Z,5912.00
2018-04-17T15:54:32.756Z,6036.00
2018-04-17T15:55:32.767Z,6112.00
2018-04-17T15:57:25.793Z,6220.00
2018-04-17T15:58:25.824Z,6248.00
2018-04-17T16:00:18.872Z,6324.00
2018-04-17T16:01:18.908Z,6360.00
2018-04-17T16:03:13.342Z,6312.00
2018-04-17T16:04:13.374Z,6296.00
2018-04-17T16:06:07.851Z,5992.00
2018-04-17T16:07:07.861Z,5760.00
2018-04-17T16:09:10.842Z,5484.00
2018-04-17T16:10:10.827Z,5316.00
2018-04-17T16:12:04.249Z,5044.00
2018-04-17T16:13:04.295Z,4924.00
2018-04-17T16:14:57.192Z,4680.00
2018-04-17T16:15:57.226Z,4576.00
2018-04-17T16:17:50.121Z,4492.00
2018-04-17T16:18:50.195Z,4500.00
2018-04-17T16:20:43.136Z,4592.00
2018-04-17T16:21:43.125Z,4676.00
2018-04-17T16:23:36.095Z,4872.00
2018-04-17T16:24:36.108Z,4972.00
2018-04-17T16:26:29.195Z,5028.00
2018-04-17T16:27:29.200Z,5012.00
2018-04-17T16:29:22.121Z,4916.00
2018-04-17T16:30:22.159Z,4892.00
2018-04-17T16:32:15.107Z,4844.00
2018-04-17T16:33:15.102Z,4792.00
2018-04-17T16:35:08.103Z,4504.00
2018-04-17T16:36:08.125Z,4440.00
2018-04-17T16:38:01.030Z,4436.00
2018-04-17T16:39:01.058Z,4376.00
2018-04-17T16:40:54.009Z,4240.00
2018-04-17T16:41:54.029Z,4184.00
2018-04-17T16:43:48.447Z,4080.00
2018-04-17T16:44:48.475Z,4064.00
2018-04-17T16:46:41.418Z,4080.00
2018-04-17T16:47:41.427Z,4084.00
2018-04-17T16:49:34.861Z,4116.00
2018-04-17T16:50:34.891Z,4124.00
2018-04-17T16:52:28.288Z,4120.00
2018-04-17T16:53:28.318Z,4120.00
2018-04-17T16:55:21.763Z,4088.00
2018-04-17T16:56:21.774Z,4044.00
2018-04-17T16:58:14.698Z,3952.00
2018-04-17T16:59:14.785Z,3912.00
2018-04-17T17:01:07.723Z,3788.00
2018-04-17T17:02:07.700Z,3736.00
2018-04-17T17:04:00.625Z,3628.00
2018-04-17T17:05:00.650Z,3556.00
2018-04-17T17:06:54.088Z,3356.00
2018-04-17T17:07:54.094Z,3224.00
2018-04-17T17:09:47.035Z,2992.00
2018-04-17T17:10:47.043Z,2888.00
2018-04-17T17:12:40.017Z,2772.00
2018-04-17T17:13:40.029Z,2704.00
2018-04-17T17:15:33.079Z,2564.00
2018-04-17T17:16:33.140Z,2488.00
2018-04-17T17:18:26.126Z,2392.00
2018-04-17T17:19:26.148Z,2376.00
2018-04-17T17:21:19.200Z,2376.00
2018-04-17T17:22:19.201Z,2372.00
2018-04-17T17:24:12.763Z,2300.00
2018-04-17T17:25:12.785Z,2252.00
2018-04-17T17:27:08.841Z,2192.00
2018-04-17T17:28:08.878Z,2148.00
2018-04-17T17:30:01.770Z,2028.00
2018-04-17T17:31:01.770Z,1964.00
2018-04-17T17:32:55.295Z,1968.00
2018-04-17T17:33:55.315Z,1996.00
2018-04-17T17:35:48.808Z,1984.00
2018-04-17T17:36:48.781Z,1944.00
2018-04-17T17:38:41.704Z,1852.00
2018-04-17T17:39:41.732Z,1824.00
2018-04-17T17:41:34.786Z,1788.00
2018-04-17T17:42:34.795Z,1780.00
2018-04-17T17:44:28.231Z,1744.00
2018-04-17T17:45:28.256Z,1720.00
2018-04-17T17:47:21.199Z,1684.00
2018-04-17T17:48:21.207Z,1668.00
2018-04-17T17:50:14.273Z,1616.00